Time;durP1;ratioP1;P1;durP2;ratioP2;P2;SDS_P1;SDS_P2;PMS_P1;PMS_P2;Temp;Humidity;BMP_temperature;BMP_pressure;BME280_temperature;BME280_humidity;BME280_pressure;Samples;Min_cycle;Max_cycle;Signal;HPM_P1;HPM_P2
2021/12/08 00:00:30;;;;;;;12.45;6.60;;;;;;;3.34;97.02;99682.97;10272493;28;20053;-63
2021/12/08 00:05:52;;;;;;;11.90;5.55;;;;;;;3.40;96.06;99664.59;10260807;28;20035;-64
2021/12/08 00:16:55;;;;;;;11.93;4.82;;;;;;;3.38;94.91;99645.81;10291190;28;20134;-63
2021/12/08 00:22:17;;;;;;;16.90;5.30;;;;;;;3.41;93.87;99627.63;10286456;28;20488;-63
2021/12/08 00:27:39;;;;;;;11.65;4.78;;;;;;;3.44;94.20;99617.16;10303414;28;20468;-62
2021/12/08 00:33:01;;;;;;;8.38;4.50;;;;;;;3.38;96.29;99602.03;10290942;28;20051;-63
2021/12/08 00:38:23;;;;;;;12.45;4.35;;;;;;;3.46;94.44;99588.75;10277328;28;20050;-63
2021/12/08 00:43:44;;;;;;;8.55;3.72;;;;;;;3.48;94.34;99577.47;10288985;28;20054;-62
2021/12/08 00:49:08;;;;;;;9.27;3.90;;;;;;;3.51;92.81;99585.00;10303247;28;20047;-63
2021/12/08 00:54:30;;;;;;;11.32;3.50;;;;;;;3.53;93.85;99565.13;10289532;28;20058;-63
2021/12/08 00:59:52;;;;;;;8.38;2.88;;;;;;;3.58;94.65;99565.72;10289790;28;20073;-63
2021/12/08 01:05:22;;;;;;;8.13;3.58;;;;;;;3.60;93.65;99555.31;10303185;28;20051;-63
2021/12/08 01:10:46;;;;;;;13.55;3.33;;;;;;;3.60;92.34;99561.31;10302971;28;20137;-63
2021/12/08 01:16:08;;;;;;;7.75;2.72;;;;;;;3.52;95.35;99553.16;10293982;28;20051;-62
2021/12/08 01:21:29;;;;;;;10.77;2.92;;;;;;;3.48;94.33;99551.72;10304555;28;20060;-63
2021/12/08 01:26:51;;;;;;;9.65;3.40;;;;;;;3.49;96.10;99543.06;10290770;28;20046;-63
2021/12/08 01:32:13;;;;;;;6.55;2.58;;;;;;;3.39;95.99;99526.44;10264065;28;20059;-63
2021/12/08 01:37:35;;;;;;;8.82;3.00;;;;;;;3.37;97.77;99522.31;10273604;28;20047;-63
2021/12/08 01:42:59;;;;;;;6.13;2.90;;;;;;;3.37;97.80;99530.03;10288654;28;20405;-64
2021/12/08 01:48:21;;;;;;;7.88;2.88;;;;;;;3.31;97.09;99518.34;10272544;28;20051;-63
2021/12/08 01:53:48;;;;;;;11.93;3.30;;;;;;;3.21;98.87;99506.06;10268003;28;20057;-63
2021/12/08 01:59:10;;;;;;;8.80;3.13;;;;;;;2.80;100.00;99488.66;10301986;28;20146;-63
2021/12/08 02:04:32;;;;;;;10.95;3.40;;;;;;;2.74;100.00;99496.72;10301858;28;20066;-64
2021/12/08 02:09:53;;;;;;;8.68;3.47;;;;;;;2.82;100.00;99486.84;10252021;28;20059;-63
2021/12/08 02:15:18;;;;;;;6.82;3.03;;;;;;;2.90;100.00;99481.22;10277059;28;20054;-63
2021/12/08 02:20:42;;;;;;;9.18;3.30;;;;;;;2.79;100.00;99476.72;10261881;28;20059;-63
2021/12/08 02:26:04;;;;;;;9.88;3.67;;;;;;;2.72;100.00;99470.25;10293432;28;20051;-63
2021/12/08 02:31:48;;;;;;;10.32;3.55;;;;;;;2.67;100.00;99451.66;10287707;28;20054;-64
2021/12/08 02:48:30;;;;;;;7.45;3.50;;;;;;;2.40;100.00;99442.88;10299224;28;20047;-63
2021/12/08 02:53:52;;;;;;;9.20;3.60;;;;;;;2.36;100.00;99442.22;10288222;28;20054;-64
2021/12/08 02:59:14;;;;;;;10.73;3.65;;;;;;;2.35;100.00;99430.28;10298456;28;20058;-64
2021/12/08 03:04:35;;;;;;;6.13;3.33;;;;;;;2.38;100.00;99430.13;10294246;28;20059;-63
2021/12/08 03:10:04;;;;;;;9.85;4.07;;;;;;;2.34;100.00;99427.78;10283425;28;20065;-64
2021/12/08 03:15:26;;;;;;;6.70;3.60;;;;;;;2.47;100.00;99428.78;10292289;28;20050;-63
2021/12/08 03:20:49;;;;;;;8.55;3.60;;;;;;;2.41;100.00;99429.94;10305542;28;20050;-63
2021/12/08 03:26:11;;;;;;;6.18;3.38;;;;;;;2.55;100.00;99442.06;10280146;28;20059;-63
2021/12/08 03:31:40;;;;;;;5.90;3.50;;;;;;;2.52;100.00;99437.06;10283258;28;20057;-65
2021/12/08 03:37:05;;;;;;;6.72;3.20;;;;;;;2.48;100.00;99441.56;10306238;28;20105;-63
2021/12/08 03:42:29;;;;;;;8.10;3.22;;;;;;;2.53;100.00;99438.72;10291806;28;20055;-62
2021/12/08 03:47:59;;;;;;;6.53;2.75;;;;;;;2.46;100.00;99440.00;10292280;28;20053;-63
2021/12/08 03:53:21;;;;;;;5.40;3.00;;;;;;;2.44;100.00;99445.19;10304443;28;20408;-63
2021/12/08 03:58:43;;;;;;;4.85;2.75;;;;;;;2.57;100.00;99447.94;10291062;28;20053;-64
2021/12/08 04:04:08;;;;;;;5.03;2.90;;;;;;;2.54;100.00;99450.69;10295943;28;20055;-63
2021/12/08 04:09:43;;;;;;;4.82;2.42;;;;;;;2.56;100.00;99448.84;10304349;28;20451;-64
2021/12/08 04:15:05;;;;;;;;;;;;;;;2.56;100.00;99454.00;10305066;28;20491;-64
2021/12/08 04:20:36;;;;;;;5.35;2.28;;;;;;;2.55;100.00;99452.34;10305749;28;19922;-63
2021/12/08 04:25:59;;;;;;;5.32;2.60;;;;;;;2.70;100.00;99441.22;10263395;28;20057;-62
2021/12/08 04:31:25;;;;;;;8.48;2.47;;;;;;;2.83;100.00;99464.44;10262946;28;20065;-63
2021/12/08 04:36:50;;;;;;;6.75;2.50;;;;;;;2.84;100.00;99445.50;10277746;28;20086;-64
2021/12/08 04:42:16;;;;;;;6.07;2.30;;;;;;;2.87;100.00;99455.63;10280714;28;20078;-63
2021/12/08 04:48:02;;;;;;;6.63;2.40;;;;;;;2.96;100.00;99462.84;10289985;28;20046;-63
2021/12/08 04:53:37;;;;;;;7.78;2.83;;;;;;;3.08;100.00;99438.97;10303709;28;20051;-63
2021/12/08 05:05:03;;;;;;;3.78;2.17;;;;;;;3.22;100.00;99445.94;10303317;28;20055;-63
2021/12/08 05:10:34;;;;;;;4.80;2.50;;;;;;;3.27;100.00;99442.19;10276023;28;20508;-63
2021/12/08 05:15:57;;;;;;;5.50;2.35;;;;;;;3.29;100.00;99448.06;10265213;28;20054;-63
2021/12/08 05:21:29;;;;;;;4.68;2.47;;;;;;;3.37;100.00;99440.72;10276212;28;20055;-64
2021/12/08 05:26:58;;;;;;;10.57;2.33;;;;;;;3.46;100.00;99449.66;10287684;28;20047;-63
2021/12/08 05:32:21;;;;;;;10.07;2.92;;;;;;;3.50;100.00;99461.47;10288997;28;20488;-63
2021/12/08 05:37:42;;;;;;;7.03;2.63;;;;;;;3.56;100.00;99467.09;10289043;28;20056;-64
2021/12/08 05:43:07;;;;;;;3.88;2.33;;;;;;;3.54;100.00;99478.41;10288407;28;20050;-63
2021/12/08 05:48:31;;;;;;;5.60;2.42;;;;;;;3.52;100.00;99475.91;10288312;28;20046;-63
2021/12/08 05:53:58;;;;;;;5.05;2.20;;;;;;;3.54;100.00;99484.38;10288080;28;20051;-63
2021/12/08 05:59:22;;;;;;;4.38;2.42;;;;;;;3.65;100.00;99476.84;10262361;28;20043;-63
2021/12/08 06:04:44;;;;;;;6.22;2.55;;;;;;;3.64;100.00;99479.53;10246636;28;20381;-63
2021/12/08 06:10:14;;;;;;;3.95;2.20;;;;;;;3.67;100.00;99485.31;10287090;28;20051;-63
2021/12/08 06:15:36;;;;;;;6.25;2.55;;;;;;;3.72;100.00;99487.63;10301572;28;20051;-63
2021/12/08 06:20:59;;;;;;;4.93;2.47;;;;;;;3.71;100.00;99497.09;10273948;28;20051;-63
2021/12/08 06:26:24;;;;;;;5.90;2.40;;;;;;;3.78;100.00;99505.31;10260789;28;20055;-62
2021/12/08 06:31:50;;;;;;;5.00;2.40;;;;;;;3.89;100.00;99516.66;10290699;28;20047;-63
2021/12/08 06:37:20;;;;;;;6.23;2.53;;;;;;;3.86;100.00;99507.34;10309255;28;20059;-63
2021/12/08 06:42:45;;;;;;;3.28;2.15;;;;;;;3.87;100.00;99518.50;10294797;28;20054;-63
2021/12/08 06:48:11;;;;;;;4.97;2.13;;;;;;;3.93;100.00;99510.38;10292565;28;20567;-63
2021/12/08 06:53:34;;;;;;;6.60;2.30;;;;;;;3.92;100.00;99506.19;10308503;28;20309;-64
2021/12/08 06:59:04;;;;;;;5.03;2.13;;;;;;;3.90;100.00;99520.91;10281126;28;20051;-63
2021/12/08 07:04:37;;;;;;;2.83;2.22;;;;;;;3.89;100.00;99516.66;10294335;28;20054;-63
2021/12/08 07:10:06;;;;;;;5.28;2.00;;;;;;;3.87;100.00;99511.56;10294920;28;20491;-63
2021/12/08 07:15:34;;;;;;;9.13;2.20;;;;;;;4.00;100.00;99516.84;10282941;28;20058;-63
2021/12/08 07:21:01;;;;;;;2.63;2.15;;;;;;;4.01;100.00;99531.41;10305751;28;20513;-63
2021/12/08 07:26:27;;;;;;;3.75;2.05;;;;;;;4.04;100.00;99552.66;10296794;28;20054;-63
2021/12/08 07:31:57;;;;;;;4.10;2.10;;;;;;;4.05;100.00;99558.66;10294496;28;20059;-63
2021/12/08 07:37:24;;;;;;;4.88;1.92;;;;;;;4.08;100.00;99569.63;10309627;28;20078;-63
2021/12/08 07:43:00;;;;;;;4.85;2.10;;;;;;;4.10;100.00;99561.78;10306191;28;20065;-63
2021/12/08 07:48:26;;;;;;;3.47;2.10;;;;;;;4.12;100.00;99570.25;10272698;28;20046;-63
2021/12/08 07:53:49;;;;;;;4.43;2.50;;;;;;;4.19;100.00;99571.59;10306317;28;20050;-64
2021/12/08 07:59:14;;;;;;;3.35;2.15;;;;;;;4.22;100.00;99572.22;10279833;28;20059;-64
2021/12/08 08:04:41;;;;;;;5.47;2.13;;;;;;;4.33;100.00;99574.19;10261410;28;20389;-64
2021/12/08 08:10:12;;;;;;;3.75;1.90;;;;;;;4.32;100.00;99572.50;10284239;28;20067;-64
2021/12/08 08:15:40;;;;;;;6.50;2.15;;;;;;;4.32;100.00;99582.81;10280836;28;20054;-64
2021/12/08 08:21:12;;;;;;;2.22;2.00;;;;;;;4.36;100.00;99590.28;10296946;28;20058;-65
2021/12/08 08:26:36;;;;;;;2.92;2.05;;;;;;;4.37;100.00;99591.09;10290207;28;20139;-64
2021/12/08 08:32:07;;;;;;;4.80;1.95;;;;;;;4.40;100.00;99601.25;10279502;28;20061;-63
2021/12/08 08:37:29;;;;;;;2.35;2.03;;;;;;;4.51;100.00;99614.38;10304469;28;20051;-63
2021/12/08 08:42:53;;;;;;;3.17;2.03;;;;;;;4.57;100.00;99606.25;10274174;28;20126;-63
2021/12/08 08:48:20;;;;;;;5.45;2.40;;;;;;;4.64;100.00;99625.63;10269610;28;20046;-66
2021/12/08 08:53:45;;;;;;;3.75;2.15;;;;;;;4.71;100.00;99632.06;10274540;28;20424;-63
2021/12/08 08:59:13;;;;;;;3.95;1.90;;;;;;;4.71;100.00;99637.22;10282345;28;20051;-64
2021/12/08 09:04:57;;;;;;;3.55;2.10;;;;;;;4.75;100.00;99635.19;10266026;28;20408;-63
2021/12/08 09:10:35;;;;;;;5.28;1.80;;;;;;;4.76;100.00;99626.53;10272798;28;20049;-64
2021/12/08 09:16:04;;;;;;;4.72;2.20;;;;;;;4.83;100.00;99632.16;10236283;28;20383;-64
2021/12/08 09:21:37;;;;;;;6.28;2.22;;;;;;;4.86;100.00;99630.22;10299021;28;20447;-64
2021/12/08 09:27:01;;;;;;;3.85;2.20;;;;;;;4.90;100.00;99648.91;10288666;28;20418;-64
2021/12/08 09:32:31;;;;;;;3.63;2.00;;;;;;;5.02;100.00;99661.94;10285065;28;20051;-65
2021/12/08 09:37:58;;;;;;;5.15;2.22;;;;;;;5.07;100.00;99657.31;10323672;28;20089;-64
2021/12/08 09:43:28;;;;;;;8.10;2.20;;;;;;;5.12;100.00;99657.84;10250329;28;20062;-65
2021/12/08 09:48:50;;;;;;;4.60;2.20;;;;;;;5.09;100.00;99670.13;10272344;28;20053;-65
2021/12/08 09:54:12;;;;;;;5.35;2.30;;;;;;;5.13;100.00;99677.59;10288706;28;20066;-64
2021/12/08 09:59:35;;;;;;;4.70;2.47;;;;;;;5.12;100.00;99686.25;10293460;28;20043;-64
2021/12/08 10:05:16;;;;;;;3.47;2.25;;;;;;;5.26;99.52;99683.66;10290467;28;20054;-64
2021/12/08 10:10:43;;;;;;;3.63;2.22;;;;;;;5.23;99.98;99677.88;10310255;28;20046;-64
2021/12/08 10:16:06;;;;;;;4.13;2.25;;;;;;;5.31;98.47;99686.81;10309251;28;20701;-63
2021/12/08 10:21:47;;;;;;;4.82;2.25;;;;;;;5.30;98.81;99672.22;10290333;28;20403;-65
2021/12/08 10:27:09;;;;;;;5.13;2.50;;;;;;;5.33;98.02;99678.94;10291343;28;20049;-64
2021/12/08 10:32:37;;;;;;;3.30;2.28;;;;;;;5.41;97.62;99676.75;10287180;28;20043;-64
2021/12/08 10:38:05;;;;;;;4.78;2.70;;;;;;;5.32;98.07;99672.97;10300545;28;20057;-64
2021/12/08 10:43:27;;;;;;;4.63;2.53;;;;;;;5.26;98.86;99657.81;10325546;28;20047;-64
2021/12/08 10:48:49;;;;;;;5.40;2.90;;;;;;;5.39;97.01;99663.91;10308216;28;20050;-64
2021/12/08 10:54:30;;;;;;;3.75;2.92;;;;;;;5.34;98.95;99644.44;10257793;28;20054;-65
2021/12/08 10:59:54;;;;;;;6.25;3.08;;;;;;;5.42;97.59;99655.97;10307212;28;20047;-64
2021/12/08 11:05:25;;;;;;;8.55;2.70;;;;;;;5.47;98.70;99650.50;10294017;28;20117;-64
2021/12/08 11:11:06;;;;;;;6.00;2.72;;;;;;;5.52;98.24;99640.72;10293218;28;20647;-64
2021/12/08 11:16:31;;;;;;;6.60;2.80;;;;;;;5.68;97.12;99647.38;10304660;28;20046;-65
2021/12/08 11:21:57;;;;;;;4.13;2.97;;;;;;;5.72;97.07;99654.03;10293383;28;20055;-64
2021/12/08 11:27:34;;;;;;;5.38;3.03;;;;;;;5.67;98.38;99673.34;10306087;28;20051;-64
2021/12/08 11:33:17;;;;;;;6.68;2.97;;;;;;;5.65;98.82;99662.28;10292043;28;20573;-64
2021/12/08 11:38:41;;;;;;;6.45;3.20;;;;;;;5.71;98.19;99660.13;10292209;28;20089;-64
2021/12/08 11:44:26;;;;;;;8.57;3.33;;;;;;;5.82;98.17;99678.44;10291523;28;20050;-64
2021/12/08 11:50:00;;;;;;;12.60;3.67;;;;;;;5.84;96.78;99694.66;10277809;28;20126;-65
2021/12/08 11:55:25;;;;;;;7.00;3.58;;;;;;;5.84;96.83;99702.41;10291857;28;20376;-65
2021/12/08 12:00:50;;;;;;;4.72;2.90;;;;;;;5.93;97.55;99692.31;10293123;28;20082;-63
2021/12/08 12:06:12;;;;;;;8.35;3.28;;;;;;;5.87;98.10;99697.03;10291769;28;20065;-64
2021/12/08 12:11:34;;;;;;;5.68;3.35;;;;;;;5.97;95.90;99692.94;10304844;28;20059;-65
2021/12/08 12:16:56;;;;;;;10.63;3.65;;;;;;;5.99;96.80;99711.78;10290958;28;20055;-65
2021/12/08 12:23:00;;;;;;;9.70;3.72;;;;;;;6.00;96.39;99710.84;10278539;28;20065;-65
2021/12/08 12:28:27;;;;;;;7.40;3.83;;;;;;;5.94;96.11;99724.19;10289324;28;20059;-65
2021/12/08 12:33:51;;;;;;;7.63;3.63;;;;;;;6.05;96.70;99721.75;10286856;28;20061;-64
2021/12/08 12:39:16;;;;;;;8.25;3.40;;;;;;;6.00;95.61;99734.13;10280550;28;20050;-65
2021/12/08 12:44:42;;;;;;;8.68;3.65;;;;;;;5.97;96.56;99731.72;10285288;28;20581;-65
2021/12/08 12:50:18;;;;;;;8.85;3.70;;;;;;;6.03;96.69;99745.13;10290429;28;20055;-65
2021/12/08 12:55:46;;;;;;;8.30;3.70;;;;;;;6.08;94.73;99743.06;10289671;28;20047;-65
2021/12/08 13:01:10;;;;;;;7.43;3.47;;;;;;;6.02;97.03;99727.09;10266140;28;20051;-65
2021/12/08 13:06:49;;;;;;;9.48;3.78;;;;;;;6.07;95.05;99725.88;10291619;28;20418;-65
2021/12/08 13:12:26;;;;;;;7.22;2.95;;;;;;;6.05;97.05;99727.72;10289541;28;20082;-64
2021/12/08 13:18:07;;;;;;;10.02;3.40;;;;;;;6.00;96.89;99741.88;10276465;28;20130;-64
2021/12/08 13:23:30;;;;;;;10.05;3.85;;;;;;;6.12;94.94;99751.44;10301459;28;20136;-64
2021/12/08 13:29:00;;;;;;;7.88;3.42;;;;;;;6.11;94.92;99742.88;10301946;28;20078;-65
2021/12/08 13:34:23;;;;;;;7.95;3.35;;;;;;;6.12;95.18;99748.88;10295482;28;20069;-65
2021/12/08 13:39:47;;;;;;;7.18;3.63;;;;;;;6.17;94.61;99752.84;10287313;28;20051;-64
2021/12/08 13:45:41;;;;;;;7.15;3.60;;;;;;;6.22;94.50;99760.31;10287499;28;20055;-64
2021/12/08 13:51:16;;;;;;;6.70;3.90;;;;;;;6.21;94.83;99767.22;10277713;28;20059;-64
2021/12/08 13:56:41;;;;;;;5.53;3.38;;;;;;;6.12;94.59;99762.66;10288606;28;20047;-64
2021/12/08 14:02:32;;;;;;;11.87;3.70;;;;;;;5.91;96.99;99773.50;10299922;28;20141;-65
2021/12/08 14:07:55;;;;;;;9.13;3.17;;;;;;;5.99;97.33;99768.69;10299411;28;20051;-64
2021/12/08 14:13:24;;;;;;;8.13;3.53;;;;;;;6.04;94.06;99767.47;10281011;28;20050;-65
2021/12/08 14:18:54;;;;;;;7.25;3.47;;;;;;;6.03;93.84;99765.81;10297989;28;20047;-64
2021/12/08 14:24:39;;;;;;;9.40;2.90;;;;;;;5.83;97.09;99774.00;10300492;28;20392;-64
2021/12/08 14:30:00;;;;;;;10.00;3.50;;;;;;;5.89;95.43;99772.78;10310465;28;20141;-64
2021/12/08 14:35:22;;;;;;;12.57;4.07;;;;;;;5.82;96.51;99774.09;10296941;28;20097;-64
2021/12/08 14:40:47;;;;;;;7.10;3.40;;;;;;;5.69;96.92;99775.72;10285963;28;20047;-64
2021/12/08 14:46:11;;;;;;;9.68;3.70;;;;;;;5.72;96.50;99784.13;10257064;28;20055;-65
2021/12/08 14:51:35;;;;;;;11.95;3.67;;;;;;;5.55;98.48;99796.41;10270206;28;20202;-65
2021/12/08 14:57:12;;;;;;;7.60;3.38;;;;;;;5.61;96.20;99801.22;10270503;28;20073;-64
2021/12/08 15:02:35;;;;;;;8.05;3.50;;;;;;;5.49;97.63;99814.03;10285743;28;20066;-64
2021/12/08 15:08:07;;;;;;;4.80;3.35;;;;;;;5.42;97.86;99813.56;10293663;28;20053;-65
2021/12/08 15:13:31;;;;;;;6.53;3.35;;;;;;;5.36;98.00;99819.13;10287742;28;20051;-63
2021/12/08 15:19:05;;;;;;;8.50;3.20;;;;;;;5.29;99.28;99824.75;10300477;28;20125;-64
2021/12/08 15:24:26;;;;;;;9.02;3.72;;;;;;;5.29;100.00;99835.91;10298982;28;20054;-65
2021/12/08 15:29:48;;;;;;;9.98;3.70;;;;;;;5.09;99.72;99841.41;10277770;28;20070;-65
2021/12/08 15:35:13;;;;;;;6.28;3.80;;;;;;;5.11;100.00;99842.13;10267527;28;20788;-64
2021/12/08 15:40:47;;;;;;;12.88;3.97;;;;;;;5.07;99.61;99839.81;10253652;29;20061;-65
2021/12/08 15:46:11;;;;;;;10.73;4.32;;;;;;;5.10;99.38;99843.06;10268716;28;20500;-65
2021/12/08 15:51:36;;;;;;;9.43;4.38;;;;;;;5.09;100.00;99851.75;10305517;28;20042;-64
2021/12/08 15:57:08;;;;;;;9.38;4.15;;;;;;;5.14;99.96;99870.38;10306398;28;20053;-65
2021/12/08 16:02:31;;;;;;;6.32;3.80;;;;;;;4.99;100.00;99867.84;10293496;28;20058;-65
2021/12/08 16:07:54;;;;;;;8.35;4.10;;;;;;;4.96;100.00;99866.25;10305216;28;20105;-65
2021/12/08 16:13:18;;;;;;;10.35;4.22;;;;;;;5.05;100.00;99870.91;10292194;28;20055;-66
2021/12/08 16:18:40;;;;;;;8.43;4.65;;;;;;;5.07;100.00;99876.84;10275498;28;20047;-65
2021/12/08 16:24:01;;;;;;;9.50;4.78;;;;;;;5.13;100.00;99881.63;10261526;28;20051;-65
2021/12/08 16:29:25;;;;;;;11.60;4.80;;;;;;;5.03;100.00;99879.66;10304590;28;20042;-64
2021/12/08 16:34:51;;;;;;;8.93;4.50;;;;;;;5.06;100.00;99880.34;10281200;28;20058;-65
2021/12/08 16:45:45;;;;;;;7.35;4.30;;;;;;;5.20;99.70;99895.88;10302758;28;20046;-67
2021/12/08 16:51:06;;;;;;;9.05;4.05;;;;;;;5.08;100.00;99890.56;10280206;28;20046;-65
2021/12/08 16:56:28;;;;;;;10.30;4.13;;;;;;;5.09;100.00;99895.66;10279077;28;20053;-65
2021/12/08 17:01:50;;;;;;;9.63;3.75;;;;;;;4.90;100.00;99899.34;10270344;28;20566;-65
2021/12/08 17:07:12;;;;;;;6.80;4.05;;;;;;;4.83;100.00;99908.38;10259235;28;20066;-65
2021/12/08 17:12:34;;;;;;;10.88;4.30;;;;;;;4.76;100.00;99914.78;10288038;28;20132;-64
2021/12/08 17:17:59;;;;;;;12.63;4.38;;;;;;;4.69;100.00;99917.78;10280166;28;20182;-65
2021/12/08 17:23:21;;;;;;;7.40;4.05;;;;;;;4.72;100.00;99924.44;10295718;28;20062;-63
2021/12/08 17:28:43;;;;;;;9.48;4.53;;;;;;;4.67;100.00;99922.19;10273631;28;20145;-64
2021/12/08 17:34:05;;;;;;;10.38;4.90;;;;;;;4.73;100.00;99936.44;10283217;28;20058;-64
2021/12/08 17:39:27;;;;;;;12.88;5.20;;;;;;;4.51;100.00;99929.13;10289491;28;20050;-65
2021/12/08 17:44:49;;;;;;;11.48;5.05;;;;;;;4.52;100.00;99941.94;10268286;28;20046;-64
2021/12/08 17:50:12;;;;;;;11.00;5.15;;;;;;;4.46;100.00;99937.09;10272315;28;20054;-63
2021/12/08 17:55:38;;;;;;;14.98;5.07;;;;;;;4.36;100.00;99935.94;10287294;28;20058;-62
2021/12/08 18:00:59;;;;;;;9.10;5.65;;;;;;;4.42;100.00;99942.50;10287380;28;20057;-63
2021/12/08 18:06:22;;;;;;;12.55;5.15;;;;;;;4.33;100.00;99945.59;10289766;28;20047;-63
2021/12/08 18:11:44;;;;;;;11.93;5.50;;;;;;;4.30;100.00;99951.72;10284883;28;20053;-63
2021/12/08 18:17:07;;;;;;;15.73;7.38;;;;;;;4.31;100.00;99963.72;10285485;28;20051;-63
2021/12/08 18:22:29;;;;;;;13.38;6.20;;;;;;;4.25;100.00;99968.34;10262028;28;20559;-64
2021/12/08 18:27:51;;;;;;;15.23;5.50;;;;;;;4.19;100.00;99968.69;10290009;28;20055;-63
2021/12/08 18:33:14;;;;;;;11.95;6.53;;;;;;;4.20;100.00;99960.06;10296327;28;20055;-64
2021/12/08 18:38:43;;;;;;;15.57;7.07;;;;;;;4.14;100.00;99965.53;10271840;28;20047;-63
2021/12/08 18:44:05;;;;;;;16.95;7.10;;;;;;;4.08;100.00;99965.81;10316137;28;20533;-64
2021/12/08 18:49:31;;;;;;;12.07;6.28;;;;;;;4.03;100.00;99978.16;10294982;28;20383;-64
2021/12/08 18:54:52;;;;;;;11.38;6.25;;;;;;;3.98;100.00;99985.28;10284823;28;20051;-65
2021/12/08 19:00:18;;;;;;;12.85;7.05;;;;;;;3.91;100.00;99984.75;10298646;28;20055;-64
2021/12/08 19:05:40;;;;;;;13.85;6.70;;;;;;;3.94;100.00;99996.63;10304726;28;20050;-64
2021/12/08 19:11:04;;;;;;;13.70;7.07;;;;;;;3.94;100.00;100000.06;10257871;28;20046;-64
2021/12/08 19:16:25;;;;;;;18.95;7.25;;;;;;;3.81;100.00;99998.19;10279198;28;20072;-63
2021/12/08 19:21:47;;;;;;;13.75;7.10;;;;;;;3.84;100.00;99998.03;10268088;28;20051;-63
2021/12/08 19:27:08;;;;;;;12.40;6.82;;;;;;;3.83;100.00;100011.81;10272710;28;20487;-64
2021/12/08 19:32:30;;;;;;;13.45;6.95;;;;;;;3.78;100.00;100018.97;10291247;28;20054;-64
2021/12/08 19:37:52;;;;;;;15.75;8.15;;;;;;;3.79;100.00;100018.03;10292830;28;20046;-64
2021/12/08 19:43:14;;;;;;;15.35;8.05;;;;;;;3.78;100.00;100026.69;10291873;28;20054;-64
2021/12/08 19:48:38;;;;;;;15.30;7.22;;;;;;;3.65;100.00;100029.94;10305704;28;20054;-64
2021/12/08 19:54:00;;;;;;;13.65;8.13;;;;;;;3.72;100.00;100045.03;10252066;28;20574;-64
2021/12/08 19:59:21;;;;;;;22.67;8.55;;;;;;;3.57;100.00;100055.25;10279966;28;20050;-64
2021/12/08 20:04:43;;;;;;;14.80;8.65;;;;;;;3.59;100.00;100051.69;10307118;28;20078;-64
2021/12/08 20:10:06;;;;;;;15.65;8.00;;;;;;;3.55;100.00;100062.25;10296546;28;20070;-64
2021/12/08 20:15:28;;;;;;;16.25;8.70;;;;;;;3.48;100.00;100066.84;10304750;28;20061;-64
2021/12/08 20:20:51;;;;;;;12.70;7.53;;;;;;;3.38;100.00;100081.06;10253156;28;20047;-64
2021/12/08 20:26:20;;;;;;;13.50;6.97;;;;;;;3.32;100.00;100083.94;10298164;28;20051;-64
2021/12/08 20:31:41;;;;;;;13.68;6.70;;;;;;;3.35;100.00;100082.94;10290454;28;20050;-64
2021/12/08 20:37:06;;;;;;;11.73;6.28;;;;;;;3.43;100.00;100086.84;10251229;29;20118;-64
2021/12/08 20:42:27;;;;;;;14.65;7.25;;;;;;;3.39;100.00;100082.72;10250647;28;20047;-64
2021/12/08 20:47:53;;;;;;;14.32;7.97;;;;;;;3.39;100.00;100072.41;10279898;28;20047;-64
2021/12/08 20:53:15;;;;;;;12.35;6.80;;;;;;;3.37;100.00;100079.38;10293072;28;20062;-64
2021/12/08 20:58:40;;;;;;;12.63;6.68;;;;;;;3.29;100.00;100081.50;10289439;28;20051;-64
2021/12/08 21:04:04;;;;;;;12.18;6.82;;;;;;;3.33;100.00;100088.19;10302764;28;20050;-64
2021/12/08 21:09:27;;;;;;;14.90;7.03;;;;;;;3.26;100.00;100091.94;10289793;28;20839;-64
2021/12/08 21:14:48;;;;;;;11.82;7.05;;;;;;;3.28;100.00;100094.44;10302108;28;20054;-64
2021/12/08 21:20:11;;;;;;;12.82;7.13;;;;;;;3.26;100.00;100109.97;10302416;28;20051;-64
2021/12/08 21:25:33;;;;;;;13.73;6.65;;;;;;;3.17;100.00;100118.13;10287731;28;20061;-64
2021/12/08 21:30:55;;;;;;;12.77;6.97;;;;;;;3.15;100.00;100117.34;10279442;28;20055;-64
2021/12/08 21:36:17;;;;;;;12.40;7.00;;;;;;;3.09;100.00;100117.63;10283321;28;20055;-64
2021/12/08 21:41:39;;;;;;;10.75;7.18;;;;;;;3.11;100.00;100118.41;10288249;28;20380;-63
2021/12/08 21:47:01;;;;;;;12.18;7.05;;;;;;;3.17;100.00;100118.13;10280672;28;20522;-64
2021/12/08 21:52:23;;;;;;;13.23;7.00;;;;;;;3.09;100.00;100138.22;10301504;28;20648;-64
2021/12/08 21:57:44;;;;;;;11.25;7.15;;;;;;;3.20;100.00;100142.88;10278800;28;20046;-64
2021/12/08 22:03:06;;;;;;;16.17;7.35;;;;;;;3.13;100.00;100147.47;10308939;28;20070;-64
2021/12/08 22:08:28;;;;;;;13.98;8.02;;;;;;;3.04;100.00;100137.63;10301333;28;20043;-64
2021/12/08 22:13:50;;;;;;;16.17;7.38;;;;;;;3.02;100.00;100136.84;10310521;28;20506;-63
2021/12/08 22:19:12;;;;;;;12.02;7.43;;;;;;;3.02;100.00;100128.25;10295877;28;20058;-64
2021/12/08 22:24:33;;;;;;;14.32;7.47;;;;;;;2.98;100.00;100131.91;10295412;28;20054;-64
2021/12/08 22:29:55;;;;;;;13.43;7.97;;;;;;;3.02;100.00;100139.41;10288978;28;20050;-64
2021/12/08 22:35:18;;;;;;;14.23;7.70;;;;;;;2.96;100.00;100136.28;10309064;28;20463;-64
2021/12/08 22:40:39;;;;;;;11.90;7.20;;;;;;;2.98;100.00;100135.31;10283388;28;20082;-64
2021/12/08 22:46:04;;;;;;;13.35;8.23;;;;;;;3.03;100.00;100147.97;10296523;28;20054;-64
2021/12/08 22:51:30;;;;;;;15.02;7.40;;;;;;;3.00;100.00;100151.50;10308401;28;20054;-64
2021/12/08 22:56:51;;;;;;;16.05;7.75;;;;;;;3.00;100.00;100151.50;10289213;28;20592;-64
2021/12/08 23:02:13;;;;;;;14.27;7.68;;;;;;;3.03;100.00;100135.09;10308066;28;20050;-63
2021/12/08 23:07:37;;;;;;;11.20;7.72;;;;;;;2.94;100.00;100138.91;10306336;28;20054;-64
2021/12/08 23:12:58;;;;;;;15.57;7.40;;;;;;;3.06;100.00;100153.78;10295001;28;20054;-64
2021/12/08 23:18:20;;;;;;;15.43;7.90;;;;;;;3.10;100.00;100157.91;10308727;28;20050;-63
2021/12/08 23:23:42;;;;;;;14.10;7.53;;;;;;;3.03;100.00;100155.69;10306670;28;20054;-64
2021/12/08 23:29:06;;;;;;;14.55;7.22;;;;;;;3.18;100.00;100160.13;10306304;28;20043;-64
2021/12/08 23:34:31;;;;;;;12.15;7.57;;;;;;;2.97;100.00;100167.09;10284727;28;20051;-64
2021/12/08 23:39:53;;;;;;;15.80;8.20;;;;;;;3.09;100.00;100161.38;10298654;28;20057;-64
2021/12/08 23:45:14;;;;;;;12.02;7.10;;;;;;;2.97;100.00;100167.09;10281357;28;20054;-64
2021/12/08 23:50:36;;;;;;;16.02;8.10;;;;;;;2.93;100.00;100160.41;10287241;28;20047;-64
2021/12/08 23:56:00;;;;;;;14.50;8.13;;;;;;;2.91;100.00;100156.22;10288475;28;20058;-64
